Princeville, Hawaii
Current Conditions -  °F | °C
As of 3:53 PM on Sunday 21 Dec 2014 (Local Time) from PHLI Reporting Station
Clear Clear  
Wind Chill: 80°   Ceiling: Unl
Heat Index: 82°   Visibility: 10mi
Dew Point: 65°   Wind: 15mph
Humidity: 60%   Direction: 40°NE
Pressure: 29.96"   Gusts: NA
Location:  22.22°N, 159.48°W
Report Text: PHLI 220153Z 04013KT 10SM CLR 27/18 A2996 RMK AO2 SLP145 T02670183
Loading
Personal Weather Stations






























Interactive Weather Map New forecast layout! Learn more

10-Day Weather Forecast

Advertisements
Track Severe Weather on mobile